createdAt,value
2019-03-21T00:02:05.139Z,5.93
2019-03-21T00:08:13.570Z,5.30
2019-03-21T00:14:23.291Z,5.57
2019-03-21T00:20:28.302Z,4.63
2019-03-21T00:26:32.895Z,5.07
2019-03-21T00:32:37.480Z,5.27
2019-03-21T00:38:42.365Z,5.90
2019-03-21T00:44:46.917Z,5.70
2019-03-21T00:50:51.479Z,6.03
2019-03-21T00:56:56.100Z,5.93
2019-03-21T01:03:03.482Z,5.87
2019-03-21T01:09:16.774Z,5.40
2019-03-21T01:15:21.321Z,7.50
2019-03-21T01:21:25.878Z,5.97
2019-03-21T01:27:30.599Z,6.10
2019-03-21T01:33:35.141Z,5.80
2019-03-21T01:39:39.707Z,6.40
2019-03-21T01:45:44.256Z,6.27
2019-03-21T01:51:48.876Z,6.83
2019-03-21T01:57:53.443Z,7.60
2019-03-21T02:03:57.985Z,8.00
2019-03-21T02:10:02.617Z,7.30
2019-03-21T02:16:07.160Z,8.20
2019-03-21T02:22:11.714Z,6.80
2019-03-21T02:28:16.262Z,7.97
2019-03-21T02:34:20.810Z,8.10
2019-03-21T02:40:26.802Z,8.23
2019-03-21T02:46:31.446Z,8.17
2019-03-21T02:52:36.001Z,7.80
2019-03-21T02:58:40.586Z,7.73
2019-03-21T03:04:45.197Z,7.53
2019-03-21T03:10:56.850Z,8.47
2019-03-21T03:17:01.394Z,9.63
2019-03-21T03:23:06.037Z,8.40
2019-03-21T03:29:10.584Z,9.17
2019-03-21T03:35:15.502Z,9.03
2019-03-21T03:41:22.166Z,10.20
2019-03-21T03:47:26.714Z,8.90
2019-03-21T03:53:31.275Z,10.13
2019-03-21T03:59:35.905Z,10.03
2019-03-21T04:05:40.457Z,8.87
2019-03-21T04:11:45.089Z,10.80
2019-03-21T04:17:49.670Z,11.07
2019-03-21T04:23:54.226Z,11.00
2019-03-21T04:29:58.767Z,11.23
2019-03-21T04:36:03.325Z,10.20
2019-03-21T04:42:07.885Z,9.93
2019-03-21T04:48:12.504Z,10.17
2019-03-21T04:54:17.067Z,10.30
2019-03-21T05:00:35.056Z,10.93
2019-03-21T05:06:39.615Z,10.50
2019-03-21T05:12:44.236Z,10.20
2019-03-21T05:19:00.225Z,10.57
2019-03-21T05:25:08.297Z,11.50
2019-03-21T05:31:26.935Z,11.13
2019-03-21T05:37:31.502Z,11.70
2019-03-21T05:43:43.316Z,11.43
2019-03-21T05:49:47.966Z,12.10
2019-03-21T05:55:52.595Z,9.70
2019-03-21T06:01:57.156Z,10.90
2019-03-21T06:08:09.635Z,11.70
2019-03-21T06:14:14.420Z,11.40
2019-03-21T06:20:32.468Z,10.10
2019-03-21T06:27:25.585Z,10.33
2019-03-21T06:33:30.154Z,11.20
2019-03-21T06:39:34.686Z,11.30
2019-03-21T06:45:47.593Z,12.00
2019-03-21T06:51:45.538Z,11.00
2019-03-21T06:57:50.095Z,11.43
2019-03-21T07:03:54.665Z,11.20
2019-03-21T07:10:00.929Z,13.17
2019-03-21T07:16:05.616Z,10.83
2019-03-21T07:22:12.305Z,9.83
2019-03-21T07:28:16.541Z,9.30
2019-03-21T07:34:21.101Z,9.27
2019-03-21T07:40:25.671Z,11.47
2019-03-21T07:46:32.094Z,9.07
2019-03-21T07:52:36.581Z,9.23
2019-03-21T07:58:41.133Z,9.57
2019-03-21T08:04:45.703Z,9.87
2019-03-21T08:10:50.303Z,9.17
2019-03-21T08:16:54.866Z,10.83
2019-03-21T08:22:59.432Z,8.53
2019-03-21T08:29:04.060Z,7.07
2019-03-21T08:35:09.270Z,7.80
2019-03-21T08:41:13.971Z,6.23
2019-03-21T08:47:18.536Z,8.03
2019-03-21T08:53:23.133Z,7.80
2019-03-21T08:59:27.717Z,6.60
2019-03-21T09:05:32.454Z,7.33
2019-03-21T09:11:37.088Z,7.40
2019-03-21T09:17:41.720Z,7.50
2019-03-21T09:23:46.268Z,8.10
2019-03-21T09:29:53.733Z,8.40
2019-03-21T09:35:57.206Z,8.73
2019-03-21T09:42:01.792Z,10.37
2019-03-21T09:48:06.376Z,10.07
2019-03-21T09:54:10.944Z,11.17
2019-03-21T10:00:20.198Z,11.00
2019-03-21T10:06:24.847Z,11.30
2019-03-21T10:12:29.427Z,11.13
2019-03-21T10:18:33.992Z,12.60
2019-03-21T10:24:38.562Z,8.03
2019-03-21T10:30:43.699Z,6.83
2019-03-21T10:36:49.902Z,5.97
2019-03-21T10:42:54.483Z,5.80
2019-03-21T10:48:59.056Z,4.93
2019-03-21T10:55:04.682Z,4.90
2019-03-21T11:01:09.255Z,5.30
2019-03-21T11:07:12.286Z,6.13
2019-03-21T11:13:16.848Z,5.90
2019-03-21T11:19:21.486Z,5.00
2019-03-21T11:25:26.118Z,6.70
2019-03-21T11:31:30.680Z,4.97
2019-03-21T11:37:35.248Z,5.20
2019-03-21T11:43:39.812Z,4.80
2019-03-21T11:49:44.385Z,5.47
2019-03-21T11:55:49.004Z,5.17
2019-03-21T12:01:53.648Z,5.03
2019-03-21T12:07:58.217Z,5.70
2019-03-21T12:14:02.778Z,6.60
2019-03-21T12:20:29.217Z,5.50
2019-03-21T12:26:33.779Z,5.40
2019-03-21T12:32:38.354Z,5.40
2019-03-21T12:38:42.919Z,4.87
2019-03-21T12:44:49.469Z,5.27
2019-03-21T12:50:53.853Z,5.77
2019-03-21T12:56:58.416Z,5.07
2019-03-21T13:03:03.198Z,5.23
2019-03-21T13:09:09.023Z,4.30
2019-03-21T13:15:13.721Z,5.57
2019-03-21T13:21:18.414Z,5.20
2019-03-21T13:27:22.972Z,5.67
2019-03-21T13:33:27.531Z,4.27
2019-03-21T13:39:32.096Z,4.17
2019-03-21T13:45:36.747Z,4.57
2019-03-21T13:51:41.309Z,3.93
2019-03-21T13:57:45.864Z,4.13
2019-03-21T14:03:51.408Z,3.87
2019-03-21T14:09:55.975Z,3.60
2019-03-21T14:16:00.590Z,4.13
2019-03-21T14:22:05.150Z,4.30
2019-03-21T14:28:09.711Z,4.60
2019-03-21T14:34:14.277Z,4.27
2019-03-21T14:40:19.008Z,3.97
2019-03-21T14:46:23.574Z,4.37
2019-03-21T14:52:28.137Z,6.93
2019-03-21T14:58:32.699Z,3.40
2019-03-21T15:04:37.259Z,4.40
2019-03-21T15:10:41.817Z,3.47
2019-03-21T15:16:46.387Z,5.80
2019-03-21T15:22:50.955Z,5.33
2019-03-21T15:28:55.594Z,3.40
2019-03-21T15:35:00.245Z,3.90
2019-03-21T15:41:05.178Z,3.73
2019-03-21T15:47:09.877Z,4.60
2019-03-21T15:53:14.573Z,4.03
2019-03-21T15:59:19.141Z,4.20
2019-03-21T16:05:23.743Z,4.10
2019-03-21T16:11:28.278Z,3.70
2019-03-21T16:17:32.976Z,3.70
2019-03-21T16:23:37.533Z,4.80
2019-03-21T16:29:42.092Z,4.57
2019-03-21T16:35:46.655Z,3.83
2019-03-21T16:41:51.221Z,3.83
2019-03-21T16:47:55.786Z,4.40
2019-03-21T16:54:00.367Z,4.03
2019-03-21T17:00:08.884Z,4.80
2019-03-21T17:06:13.453Z,4.80
2019-03-21T17:12:18.049Z,4.33
2019-03-21T17:18:22.622Z,4.17
2019-03-21T17:24:29.587Z,5.03
2019-03-21T17:30:33.453Z,3.80
2019-03-21T17:36:38.024Z,3.27
2019-03-21T17:42:42.721Z,3.33
2019-03-21T17:48:47.385Z,5.00
2019-03-21T17:54:51.952Z,5.57
2019-03-21T18:00:56.512Z,5.60
2019-03-21T18:07:01.079Z,6.00
2019-03-21T18:13:06.568Z,5.90
2019-03-21T18:19:11.131Z,5.50
2019-03-21T18:25:15.759Z,6.53
2019-03-21T18:31:20.307Z,4.97
2019-03-21T18:37:24.887Z,5.53
2019-03-21T18:43:29.476Z,5.77
2019-03-21T18:49:34.034Z,5.57
2019-03-21T18:55:38.598Z,12.50
2019-03-21T19:01:43.201Z,14.70
2019-03-21T19:07:48.033Z,16.07
2019-03-21T19:13:52.602Z,17.40
2019-03-21T19:19:57.175Z,19.27
2019-03-21T19:26:01.843Z,19.67
2019-03-21T19:32:06.419Z,22.33
2019-03-21T19:38:11.317Z,23.40
2019-03-21T19:44:15.882Z,23.17
2019-03-21T19:50:22.643Z,20.17
2019-03-21T19:56:27.206Z,20.40
2019-03-21T20:02:31.827Z,20.13
2019-03-21T20:08:36.391Z,21.43
2019-03-21T20:14:40.970Z,18.70
2019-03-21T20:20:45.529Z,20.00
2019-03-21T20:26:50.167Z,16.70
2019-03-21T20:32:54.726Z,18.80
2019-03-21T20:38:59.292Z,17.57
2019-03-21T20:45:04.195Z,17.47
2019-03-21T20:51:08.843Z,18.17
2019-03-21T20:57:13.404Z,19.10
2019-03-21T21:03:18.938Z,17.37
2019-03-21T21:09:25.011Z,20.20
2019-03-21T21:15:29.636Z,18.73
2019-03-21T21:21:34.239Z,20.07
2019-03-21T21:27:48.735Z,18.00
2019-03-21T21:33:45.200Z,17.33
2019-03-21T21:39:49.875Z,17.57
2019-03-21T21:45:54.484Z,18.70
2019-03-21T21:51:59.048Z,18.77
2019-03-21T21:58:03.606Z,18.77
2019-03-21T22:04:08.229Z,18.37
2019-03-21T22:10:13.518Z,19.60
2019-03-21T22:16:18.095Z,19.97
2019-03-21T22:22:22.649Z,16.73
2019-03-21T22:28:27.206Z,17.93
2019-03-21T22:34:31.827Z,19.70
2019-03-21T22:40:36.474Z,21.10
2019-03-21T22:46:41.018Z,18.53
2019-03-21T22:52:46.372Z,20.37
2019-03-21T22:58:50.944Z,22.83
2019-03-21T23:04:55.484Z,18.70
2019-03-21T23:11:00.047Z,17.30
2019-03-21T23:17:04.605Z,18.40
2019-03-21T23:23:09.164Z,18.10
2019-03-21T23:29:13.720Z,18.13
2019-03-21T23:35:18.410Z,18.40
2019-03-21T23:41:23.003Z,21.97
2019-03-21T23:47:27.567Z,17.67
2019-03-21T23:53:32.195Z,18.90
2019-03-21T23:59:36.751Z,21.20
